createdAt,value
2023-02-17T00:01:39.489Z,17.53
2023-02-17T00:04:07.596Z,16.40
2023-02-17T00:06:35.710Z,16.63
2023-02-17T00:09:05.423Z,16.40
2023-02-17T00:11:33.973Z,17.77
2023-02-17T00:14:02.055Z,18.43
2023-02-17T00:16:30.968Z,16.90
2023-02-17T00:19:02.375Z,17.73
2023-02-17T00:21:33.146Z,17.53
2023-02-17T00:24:02.008Z,17.70
2023-02-17T00:26:31.595Z,18.57
2023-02-17T00:29:00.071Z,18.07
2023-02-17T00:31:28.470Z,17.90
2023-02-17T00:33:57.591Z,18.60
2023-02-17T00:36:27.565Z,18.33
2023-02-17T00:38:58.625Z,19.20
2023-02-17T00:41:28.961Z,18.47
2023-02-17T00:43:58.683Z,19.00
2023-02-17T00:46:27.944Z,19.07
2023-02-17T00:48:56.331Z,18.50
2023-02-17T00:51:25.742Z,18.13
2023-02-17T00:53:54.072Z,18.93
2023-02-17T00:56:22.242Z,17.93
2023-02-17T00:58:50.320Z,17.83
2023-02-17T01:01:19.934Z,17.87
2023-02-17T01:03:48.072Z,16.83
2023-02-17T01:06:25.783Z,18.87
2023-02-17T01:08:54.275Z,17.10
2023-02-17T01:11:25.190Z,16.70
2023-02-17T01:13:54.256Z,17.73
2023-02-17T01:16:28.043Z,17.83
2023-02-17T01:18:57.049Z,17.03
2023-02-17T01:21:28.532Z,17.00
2023-02-17T01:23:59.592Z,17.07
2023-02-17T01:26:30.803Z,16.63
2023-02-17T01:28:59.786Z,16.40
2023-02-17T01:31:29.996Z,16.80
2023-02-17T01:34:02.151Z,16.97
2023-02-17T01:36:30.952Z,15.70
2023-02-17T01:38:59.271Z,15.57
2023-02-17T01:41:29.592Z,15.07
2023-02-17T01:44:15.601Z,15.17
2023-02-17T01:46:47.879Z,15.00
2023-02-17T01:49:32.715Z,15.80
2023-02-17T01:52:10.718Z,15.90
2023-02-17T01:54:45.604Z,15.57
2023-02-17T01:57:17.611Z,14.63
2023-02-17T01:59:46.907Z,14.57
2023-02-17T02:02:17.573Z,14.07
2023-02-17T02:04:52.370Z,14.63
2023-02-17T02:07:27.761Z,13.90
2023-02-17T02:09:58.568Z,14.30
2023-02-17T02:12:29.040Z,14.47
2023-02-17T02:15:02.872Z,14.53
2023-02-17T02:17:49.836Z,14.00
2023-02-17T02:20:47.222Z,14.10
2023-02-17T02:23:36.235Z,13.63
2023-02-17T02:27:11.583Z,14.07
2023-02-17T02:30:21.768Z,13.27
2023-02-17T02:33:00.876Z,13.63
2023-02-17T02:35:40.833Z,13.60
2023-02-17T02:38:17.186Z,13.60
2023-02-17T02:40:53.566Z,13.50
2023-02-17T02:43:24.546Z,13.10
2023-02-17T02:45:52.766Z,13.00
2023-02-17T02:48:22.497Z,14.03
2023-02-17T02:51:18.131Z,14.27
2023-02-17T02:54:18.763Z,14.40
2023-02-17T02:57:13.769Z,14.40
2023-02-17T02:59:57.995Z,14.40
2023-02-17T03:02:37.509Z,14.60
2023-02-17T03:05:16.516Z,15.23
2023-02-17T03:07:54.483Z,14.00
2023-02-17T03:10:23.520Z,14.53
2023-02-17T03:12:52.017Z,14.73
2023-02-17T03:15:29.890Z,14.73
2023-02-17T03:17:58.834Z,14.50
2023-02-17T03:20:33.800Z,14.90
2023-02-17T03:23:01.996Z,13.83
2023-02-17T03:25:30.186Z,14.17
2023-02-17T03:27:58.300Z,14.17
2023-02-17T03:30:26.484Z,14.27
2023-02-17T03:32:54.801Z,14.63
2023-02-17T03:35:23.002Z,14.57
2023-02-17T03:37:52.452Z,14.60
2023-02-17T03:40:20.757Z,13.83
2023-02-17T03:42:48.864Z,13.50
2023-02-17T03:45:17.173Z,13.53
2023-02-17T03:47:45.338Z,13.37
2023-02-17T03:50:13.486Z,14.47
2023-02-17T03:52:41.580Z,12.87
2023-02-17T03:55:11.174Z,14.03
2023-02-17T03:57:39.294Z,13.20
2023-02-17T04:00:09.428Z,14.03
2023-02-17T04:02:37.615Z,12.20
2023-02-17T04:05:06.385Z,13.30
2023-02-17T04:07:34.572Z,12.53
2023-02-17T04:10:05.166Z,12.60
2023-02-17T04:12:35.350Z,12.33
2023-02-17T04:15:03.501Z,12.67
2023-02-17T04:17:31.651Z,12.40
2023-02-17T04:19:59.942Z,11.57
2023-02-17T04:22:28.281Z,12.13
2023-02-17T04:24:56.377Z,12.30
2023-02-17T04:27:24.658Z,12.77
2023-02-17T04:29:54.572Z,11.73
2023-02-17T04:32:22.731Z,11.77
2023-02-17T04:34:50.834Z,11.97
2023-02-17T04:37:18.937Z,12.27
2023-02-17T04:39:47.028Z,11.53
2023-02-17T04:42:15.098Z,11.50
2023-02-17T04:44:43.208Z,12.30
2023-02-17T04:47:13.246Z,11.33
2023-02-17T04:49:41.339Z,11.73
2023-02-17T04:52:09.541Z,11.20
2023-02-17T04:54:37.909Z,11.43
2023-02-17T04:57:06.003Z,11.83
2023-02-17T04:59:34.161Z,11.17
2023-02-17T05:02:02.298Z,12.03
2023-02-17T05:04:31.961Z,11.87
2023-02-17T05:07:00.104Z,11.00
2023-02-17T05:09:28.608Z,11.63
2023-02-17T05:11:57.311Z,10.37
2023-02-17T05:14:25.508Z,11.00
2023-02-17T05:16:53.643Z,10.47
2023-02-17T05:19:21.756Z,10.23
2023-02-17T05:21:51.314Z,10.00
2023-02-17T05:24:19.476Z,9.87
2023-02-17T05:26:47.671Z,10.63
2023-02-17T05:29:16.030Z,10.03
2023-02-17T05:31:44.273Z,9.77
2023-02-17T05:34:13.271Z,9.90
2023-02-17T05:36:41.429Z,9.87
2023-02-17T05:39:10.843Z,10.97
2023-02-17T05:41:38.998Z,9.87
2023-02-17T05:44:07.115Z,10.03
2023-02-17T05:46:35.297Z,8.73
2023-02-17T05:49:03.401Z,8.93
2023-02-17T05:51:31.524Z,9.20
2023-02-17T05:53:59.645Z,8.77
2023-02-17T05:56:29.409Z,8.33
2023-02-17T05:58:57.684Z,8.70
2023-02-17T06:01:25.833Z,8.40
2023-02-17T06:03:54.011Z,8.00
2023-02-17T06:06:22.131Z,7.23
2023-02-17T06:08:50.294Z,7.90
2023-02-17T06:11:18.588Z,7.67
2023-02-17T06:13:48.330Z,7.43
2023-02-17T06:16:16.486Z,7.63
2023-02-17T06:18:44.637Z,8.83
2023-02-17T06:21:12.895Z,7.87
2023-02-17T06:23:41.020Z,7.77
2023-02-17T06:26:09.193Z,7.97
2023-02-17T06:28:37.401Z,7.60
2023-02-17T06:31:07.275Z,7.63
2023-02-17T06:33:35.447Z,7.63
2023-02-17T06:36:03.788Z,7.13
2023-02-17T06:38:32.061Z,7.57
2023-02-17T06:41:00.330Z,7.77
2023-02-17T06:43:28.470Z,8.27
2023-02-17T06:45:56.598Z,7.77
2023-02-17T06:48:26.159Z,7.97
2023-02-17T06:50:54.265Z,7.70
2023-02-17T06:53:22.393Z,8.03
2023-02-17T06:55:50.518Z,6.93
2023-02-17T06:58:18.640Z,7.73
2023-02-17T07:00:46.817Z,7.20
2023-02-17T07:03:14.993Z,8.07
2023-02-17T07:05:44.468Z,8.57
2023-02-17T07:08:12.606Z,7.90
2023-02-17T07:10:40.679Z,8.20
2023-02-17T07:13:08.801Z,7.53
2023-02-17T07:15:37.142Z,8.10
2023-02-17T07:18:06.668Z,8.20
2023-02-17T07:20:35.008Z,7.70
2023-02-17T07:23:04.513Z,7.80
2023-02-17T07:25:32.636Z,7.80
2023-02-17T07:28:01.328Z,7.40
2023-02-17T07:30:29.531Z,8.20
2023-02-17T07:32:57.752Z,7.10
2023-02-17T07:35:25.848Z,7.23
2023-02-17T07:37:54.000Z,7.73
2023-02-17T07:40:23.530Z,7.20
2023-02-17T07:42:51.782Z,7.33
2023-02-17T07:45:20.056Z,6.97
2023-02-17T07:47:48.181Z,7.07
2023-02-17T07:50:16.266Z,6.63
2023-02-17T07:52:44.445Z,6.97
2023-02-17T07:55:12.605Z,6.97
2023-02-17T07:57:42.111Z,7.23
2023-02-17T08:00:11.975Z,6.73
2023-02-17T08:02:40.092Z,6.63
2023-02-17T08:05:08.648Z,6.57
2023-02-17T08:07:36.742Z,6.63
2023-02-17T08:10:23.537Z,6.33
2023-02-17T08:13:10.699Z,6.20
2023-02-17T08:15:38.796Z,6.57
2023-02-17T08:18:06.906Z,6.17
2023-02-17T08:20:35.516Z,6.33
2023-02-17T08:23:04.642Z,7.07
2023-02-17T08:25:34.575Z,6.67
2023-02-17T08:28:06.512Z,6.50
2023-02-17T08:30:38.406Z,6.97
2023-02-17T08:33:06.968Z,6.40
2023-02-17T08:35:35.081Z,7.53
2023-02-17T08:38:03.358Z,6.40
2023-02-17T08:40:31.515Z,6.20
2023-02-17T08:43:00.790Z,6.07
2023-02-17T08:45:31.856Z,5.80
2023-02-17T08:48:00.214Z,6.17
2023-02-17T08:50:28.804Z,6.07
2023-02-17T08:52:57.189Z,6.20
2023-02-17T08:55:25.536Z,6.07
2023-02-17T08:57:54.141Z,5.93
2023-02-17T09:00:22.704Z,5.93
2023-02-17T09:02:52.303Z,6.20
2023-02-17T09:05:20.868Z,5.60
2023-02-17T09:07:49.052Z,6.50
2023-02-17T09:10:17.463Z,6.00
2023-02-17T09:12:45.693Z,7.03
2023-02-17T09:15:13.858Z,6.00
2023-02-17T09:17:42.734Z,6.40
2023-02-17T09:20:24.237Z,5.80
2023-02-17T09:22:53.222Z,5.60
2023-02-17T09:25:21.648Z,5.40
2023-02-17T09:27:50.061Z,5.10
2023-02-17T09:30:18.441Z,5.33
2023-02-17T09:32:46.624Z,5.03
2023-02-17T09:35:18.965Z,5.40
2023-02-17T09:37:47.401Z,5.20
2023-02-17T09:40:22.437Z,4.90
2023-02-17T09:42:50.983Z,4.40
2023-02-17T09:45:25.915Z,5.17
2023-02-17T09:48:02.364Z,4.70
2023-02-17T09:50:43.764Z,4.77
2023-02-17T09:53:25.282Z,4.60
2023-02-17T09:55:58.373Z,4.37
2023-02-17T09:58:31.837Z,5.00
2023-02-17T10:01:04.176Z,4.53
2023-02-17T10:03:40.643Z,4.97
2023-02-17T10:06:19.619Z,4.67
2023-02-17T10:08:54.837Z,4.43
2023-02-17T10:11:32.907Z,4.63
2023-02-17T10:14:13.643Z,4.73
2023-02-17T10:16:50.386Z,4.70
2023-02-17T10:19:26.722Z,4.57
2023-02-17T10:22:08.079Z,5.00
2023-02-17T10:24:36.269Z,4.57
2023-02-17T10:27:24.341Z,4.87
2023-02-17T10:30:09.745Z,4.50
2023-02-17T10:32:59.941Z,4.80
2023-02-17T10:35:49.313Z,4.77
2023-02-17T10:38:34.419Z,4.20
2023-02-17T10:41:05.729Z,4.07
2023-02-17T10:43:34.741Z,4.20
2023-02-17T10:46:07.599Z,4.00
2023-02-17T10:48:43.434Z,3.90
2023-02-17T10:51:17.401Z,3.97
2023-02-17T10:53:53.505Z,3.60
2023-02-17T10:56:28.541Z,4.10
2023-02-17T10:59:02.824Z,3.60
2023-02-17T11:01:31.206Z,3.70
2023-02-17T11:04:05.247Z,3.50
2023-02-17T11:06:37.667Z,3.50
2023-02-17T11:09:20.149Z,3.50
2023-02-17T11:11:59.327Z,3.30
2023-02-17T11:14:30.550Z,3.50
2023-02-17T11:17:02.866Z,3.87
2023-02-17T11:19:34.476Z,3.60
2023-02-17T11:22:05.853Z,3.50
2023-02-17T11:24:38.597Z,3.40
2023-02-17T11:27:11.520Z,3.50
2023-02-17T11:29:39.654Z,3.13
2023-02-17T11:32:12.357Z,3.30
2023-02-17T11:34:43.286Z,3.22
2023-02-17T11:37:24.392Z,3.60
2023-02-17T11:39:56.480Z,3.63
2023-02-17T11:42:27.646Z,3.40
2023-02-17T11:44:59.406Z,3.90
2023-02-17T11:47:40.586Z,3.80
2023-02-17T11:50:40.687Z,3.53
2023-02-17T11:53:27.249Z,4.10
2023-02-17T11:56:14.101Z,3.22
2023-02-17T11:59:18.390Z,3.40
2023-02-17T12:02:15.148Z,2.80
2023-02-17T12:04:58.203Z,3.53
2023-02-17T12:07:47.577Z,3.22
2023-02-17T12:10:26.882Z,3.13
2023-02-17T12:13:19.289Z,3.15
2023-02-17T12:16:18.047Z,3.07
2023-02-17T12:19:00.267Z,3.03
2023-02-17T12:21:54.382Z,2.85
2023-02-17T12:24:51.966Z,2.60
2023-02-17T12:27:40.946Z,2.80
2023-02-17T12:30:29.055Z,2.45
2023-02-17T12:33:28.202Z,2.50
2023-02-17T12:36:03.107Z,3.00
2023-02-17T12:38:35.798Z,2.58
2023-02-17T12:41:10.488Z,2.50
2023-02-17T12:43:48.049Z,3.13
2023-02-17T12:46:25.304Z,2.80
2023-02-17T12:49:00.755Z,3.00
2023-02-17T12:51:34.712Z,2.87
2023-02-17T12:54:15.475Z,2.90
2023-02-17T12:57:09.032Z,2.83
2023-02-17T12:59:40.233Z,2.55
2023-02-17T13:02:14.258Z,2.83
2023-02-17T13:04:45.365Z,2.87
2023-02-17T13:07:42.069Z,2.50
2023-02-17T13:10:29.842Z,2.40
2023-02-17T13:13:03.450Z,2.35
2023-02-17T13:15:49.603Z,2.60
2023-02-17T13:18:30.488Z,2.43
2023-02-17T13:21:15.719Z,2.67
2023-02-17T13:23:47.975Z,2.30
2023-02-17T13:26:35.695Z,2.27
2023-02-17T13:29:36.529Z,2.30
2023-02-17T13:32:08.873Z,2.33
2023-02-17T13:34:43.286Z,2.20
2023-02-17T13:37:28.043Z,2.50
2023-02-17T13:39:56.164Z,2.13
2023-02-17T13:42:40.191Z,2.40
2023-02-17T13:45:26.384Z,2.47
2023-02-17T13:47:57.192Z,2.50
2023-02-17T13:50:34.977Z,2.43
2023-02-17T13:53:07.217Z,2.40
2023-02-17T13:55:36.410Z,2.67
2023-02-17T13:58:04.661Z,2.67
2023-02-17T14:00:33.582Z,2.30
2023-02-17T14:03:17.315Z,2.30
2023-02-17T14:05:50.499Z,2.33
2023-02-17T14:08:28.479Z,2.40
2023-02-17T14:10:57.549Z,2.20
2023-02-17T14:13:26.274Z,2.08
2023-02-17T14:15:58.329Z,2.28
2023-02-17T14:18:36.291Z,2.55
2023-02-17T14:21:09.956Z,2.60
2023-02-17T14:23:48.997Z,2.15
2023-02-17T14:26:31.512Z,2.20
2023-02-17T14:29:02.267Z,2.45
2023-02-17T14:31:30.855Z,1.80
2023-02-17T14:34:02.845Z,1.90
2023-02-17T14:36:37.158Z,1.90
2023-02-17T14:39:08.939Z,2.00
2023-02-17T14:41:37.103Z,2.10
2023-02-17T14:44:06.022Z,2.00
2023-02-17T14:46:34.302Z,2.10
2023-02-17T14:49:02.804Z,2.28
2023-02-17T14:51:37.239Z,1.90
2023-02-17T14:54:15.033Z,1.75
2023-02-17T14:56:50.236Z,1.67
2023-02-17T14:59:18.331Z,1.70
2023-02-17T15:01:46.423Z,1.80
2023-02-17T15:04:14.408Z,2.00
2023-02-17T15:06:48.116Z,3.00
2023-02-17T15:09:21.230Z,1.73
2023-02-17T15:11:50.482Z,2.10
2023-02-17T15:14:21.795Z,2.03
2023-02-17T15:16:50.127Z,2.30
2023-02-17T15:19:18.858Z,2.03
2023-02-17T15:21:51.629Z,1.92
2023-02-17T15:24:26.346Z,1.85
2023-02-17T15:26:57.030Z,1.85
2023-02-17T15:29:27.297Z,1.92
2023-02-17T15:31:58.096Z,2.15
2023-02-17T15:34:32.055Z,2.80
2023-02-17T15:37:02.898Z,1.92
2023-02-17T15:39:31.051Z,2.33
2023-02-17T15:42:06.999Z,1.85
2023-02-17T15:44:43.708Z,1.80
2023-02-17T15:47:18.289Z,2.00
2023-02-17T15:49:47.309Z,1.70
2023-02-17T15:52:17.082Z,1.80
2023-02-17T15:54:46.159Z,1.73
2023-02-17T15:57:23.725Z,1.83
2023-02-17T15:59:54.800Z,1.98
2023-02-17T16:02:25.606Z,1.90
2023-02-17T16:04:53.797Z,2.20
2023-02-17T16:07:23.260Z,1.85
2023-02-17T16:09:51.305Z,1.98
2023-02-17T16:12:27.165Z,1.70
2023-02-17T16:14:56.682Z,2.00
2023-02-17T16:17:26.284Z,2.00
2023-02-17T16:19:55.728Z,1.90
2023-02-17T16:22:25.194Z,1.83
2023-02-17T16:24:53.398Z,1.90
2023-02-17T16:27:21.574Z,1.85
2023-02-17T16:29:49.713Z,1.45
2023-02-17T16:32:17.935Z,1.70
2023-02-17T16:34:46.104Z,2.03
2023-02-17T16:37:18.319Z,1.80
2023-02-17T16:39:48.160Z,2.08
2023-02-17T16:42:16.290Z,1.80
2023-02-17T16:44:44.432Z,1.95
2023-02-17T16:47:22.382Z,2.38
2023-02-17T16:49:51.975Z,2.87
2023-02-17T16:52:25.988Z,2.13
2023-02-17T16:54:56.040Z,2.60
2023-02-17T16:57:24.818Z,3.10
2023-02-17T16:59:53.342Z,3.10
2023-02-17T17:02:22.056Z,3.27
2023-02-17T17:04:50.168Z,3.83
2023-02-17T17:07:18.437Z,3.33
2023-02-17T17:10:06.965Z,3.43
2023-02-17T17:12:36.339Z,4.00
2023-02-17T17:15:04.902Z,4.20
2023-02-17T17:17:40.826Z,4.20
2023-02-17T17:20:14.827Z,4.03
2023-02-17T17:22:43.180Z,4.30
2023-02-17T17:25:11.639Z,4.27
2023-02-17T17:27:41.619Z,4.90
2023-02-17T17:30:18.972Z,5.03
2023-02-17T17:32:47.399Z,5.13
2023-02-17T17:35:16.921Z,5.30
2023-02-17T17:37:45.273Z,5.00
2023-02-17T17:40:21.533Z,5.20
2023-02-17T17:42:51.707Z,5.50
2023-02-17T17:45:20.156Z,5.30
2023-02-17T17:47:48.185Z,4.97
2023-02-17T17:50:21.344Z,4.73
2023-02-17T17:52:49.861Z,4.80
2023-02-17T17:55:18.137Z,5.10
2023-02-17T17:57:47.971Z,4.80
2023-02-17T18:00:19.638Z,4.50
2023-02-17T18:02:47.802Z,4.23
2023-02-17T18:05:16.022Z,3.97
2023-02-17T18:07:47.670Z,4.13
2023-02-17T18:10:16.594Z,4.17
2023-02-17T18:12:47.834Z,3.50
2023-02-17T18:15:18.657Z,3.40
2023-02-17T18:17:48.885Z,3.70
2023-02-17T18:20:16.993Z,3.43
2023-02-17T18:22:45.297Z,3.00
2023-02-17T18:25:13.449Z,3.57
2023-02-17T18:27:44.622Z,3.30
2023-02-17T18:30:16.156Z,3.30
2023-02-17T18:32:45.785Z,3.43
2023-02-17T18:35:14.791Z,3.10
2023-02-17T18:37:43.869Z,3.03
2023-02-17T18:40:14.775Z,3.03
2023-02-17T18:42:45.451Z,2.67
2023-02-17T18:45:14.565Z,2.90
2023-02-17T18:47:43.802Z,2.70
2023-02-17T18:50:15.928Z,2.57
2023-02-17T18:52:45.271Z,2.50
2023-02-17T18:55:14.326Z,2.40
2023-02-17T18:57:44.687Z,2.73
2023-02-17T19:00:16.598Z,2.60
2023-02-17T19:02:44.859Z,3.20
2023-02-17T19:05:17.404Z,2.80
2023-02-17T19:07:45.728Z,3.53
2023-02-17T19:10:15.254Z,3.23
2023-02-17T19:12:43.309Z,3.50
2023-02-17T19:15:13.830Z,3.80
2023-02-17T19:17:42.207Z,3.87
2023-02-17T19:20:12.008Z,3.87
2023-02-17T19:22:41.473Z,3.80
2023-02-17T19:25:10.325Z,4.03
2023-02-17T19:27:41.105Z,3.80
2023-02-17T19:30:11.296Z,4.17
2023-02-17T19:32:39.514Z,4.47
2023-02-17T19:35:11.293Z,4.50
2023-02-17T19:37:41.107Z,4.60
2023-02-17T19:40:10.345Z,4.10
2023-02-17T19:42:40.051Z,4.37
2023-02-17T19:45:08.912Z,4.07
2023-02-17T19:47:37.056Z,4.10
2023-02-17T19:50:06.230Z,4.23
2023-02-17T19:52:34.316Z,4.07
2023-02-17T19:55:03.877Z,3.93
2023-02-17T19:57:32.107Z,4.23
2023-02-17T20:00:00.270Z,4.27
2023-02-17T20:02:28.423Z,4.47
2023-02-17T20:04:56.578Z,4.27
2023-02-17T20:07:24.759Z,4.17
2023-02-17T20:09:52.976Z,4.80
2023-02-17T20:12:22.578Z,4.70
2023-02-17T20:14:50.723Z,4.27
2023-02-17T20:17:18.936Z,4.40
2023-02-17T20:19:47.059Z,4.30
2023-02-17T20:22:15.164Z,4.57
2023-02-17T20:24:43.295Z,4.40
2023-02-17T20:27:11.433Z,4.60
2023-02-17T20:29:42.693Z,4.27
2023-02-17T20:32:10.944Z,3.90
2023-02-17T20:34:40.993Z,4.17
2023-02-17T20:37:10.028Z,4.40
2023-02-17T20:39:40.097Z,4.23
2023-02-17T20:42:08.310Z,4.40
2023-02-17T20:44:36.767Z,4.57
2023-02-17T20:47:07.550Z,4.33
2023-02-17T20:49:36.275Z,4.50
2023-02-17T20:52:05.730Z,4.40
2023-02-17T20:54:34.608Z,5.00
2023-02-17T20:57:02.811Z,4.87
2023-02-17T20:59:30.918Z,5.53
2023-02-17T21:01:59.065Z,5.07
2023-02-17T21:04:28.553Z,5.20
2023-02-17T21:06:56.668Z,5.20
2023-02-17T21:09:25.037Z,4.53
2023-02-17T21:11:53.159Z,3.67
2023-02-17T21:14:21.245Z,3.70
2023-02-17T21:16:49.820Z,3.80
2023-02-17T21:19:19.257Z,3.13
2023-02-17T21:21:48.832Z,3.67
2023-02-17T21:24:16.983Z,3.47
2023-02-17T21:26:45.115Z,3.60
2023-02-17T21:29:13.293Z,3.70
2023-02-17T21:31:41.513Z,3.60
2023-02-17T21:34:09.939Z,3.00
2023-02-17T21:36:38.197Z,2.47
2023-02-17T21:39:07.784Z,2.60
2023-02-17T21:41:36.016Z,2.27
2023-02-17T21:44:21.594Z,2.27
2023-02-17T21:46:49.762Z,1.90
2023-02-17T21:49:17.866Z,2.10
2023-02-17T21:51:46.201Z,1.60
2023-02-17T21:54:15.828Z,1.23
2023-02-17T21:56:43.930Z,1.40
2023-02-17T21:59:12.136Z,1.40
2023-02-17T22:01:40.556Z,1.60
2023-02-17T22:04:09.294Z,1.33
2023-02-17T22:06:40.292Z,1.57
2023-02-17T22:09:12.557Z,1.70
2023-02-17T22:11:43.849Z,1.30
2023-02-17T22:14:16.781Z,1.73
2023-02-17T22:16:46.276Z,1.20
2023-02-17T22:19:17.650Z,1.20
2023-02-17T22:21:46.801Z,1.40
2023-02-17T22:24:15.661Z,1.40
2023-02-17T22:26:45.264Z,1.90
2023-02-17T22:29:13.367Z,1.67
2023-02-17T22:31:41.738Z,1.53
2023-02-17T22:34:10.912Z,2.07
2023-02-17T22:36:39.315Z,1.77
2023-02-17T22:39:09.587Z,1.60
2023-02-17T22:41:38.804Z,1.50
2023-02-17T22:44:09.340Z,1.90
2023-02-17T22:46:37.633Z,1.83
2023-02-17T22:49:06.408Z,1.70
2023-02-17T22:51:39.169Z,1.90
2023-02-17T22:54:08.883Z,1.93
2023-02-17T22:56:37.459Z,1.80
2023-02-17T22:59:07.116Z,2.00
2023-02-17T23:01:37.520Z,1.90
2023-02-17T23:04:07.029Z,2.00
2023-02-17T23:06:38.457Z,2.37
2023-02-17T23:09:10.012Z,2.53
2023-02-17T23:11:54.795Z,2.33
2023-02-17T23:14:28.762Z,2.37
2023-02-17T23:17:01.120Z,2.27
2023-02-17T23:19:30.991Z,2.27
2023-02-17T23:22:02.707Z,2.60
2023-02-17T23:24:31.049Z,3.30
2023-02-17T23:27:01.357Z,3.27
2023-02-17T23:29:32.116Z,3.87
2023-02-17T23:32:00.749Z,3.63
2023-02-17T23:34:29.240Z,3.63
2023-02-17T23:36:59.513Z,3.17
2023-02-17T23:39:27.897Z,2.60
2023-02-17T23:41:56.025Z,2.40
2023-02-17T23:44:24.186Z,1.73
2023-02-17T23:46:53.672Z,2.00
2023-02-17T23:49:21.921Z,1.60
2023-02-17T23:51:50.863Z,1.80
2023-02-17T23:54:19.045Z,1.70
2023-02-17T23:56:47.166Z,1.77
2023-02-17T23:59:15.405Z,1.63
